createdAt,value
2022-11-20T00:00:01.345Z,10.07
2022-11-20T00:03:04.140Z,9.98
2022-11-20T00:06:10.915Z,10.50
2022-11-20T00:09:13.677Z,9.93
2022-11-20T00:12:17.113Z,7.97
2022-11-20T00:15:19.689Z,7.97
2022-11-20T00:18:22.820Z,9.32
2022-11-20T00:21:27.657Z,7.80
2022-11-20T00:24:30.589Z,9.43
2022-11-20T00:27:33.351Z,7.97
2022-11-20T00:30:36.629Z,9.57
2022-11-20T00:33:39.477Z,9.52
2022-11-20T00:36:42.414Z,8.68
2022-11-20T00:39:45.092Z,9.57
2022-11-20T00:42:56.689Z,8.23
2022-11-20T00:46:00.397Z,5.75
2022-11-20T00:49:03.785Z,7.37
2022-11-20T00:52:06.591Z,7.40
2022-11-20T00:55:09.681Z,9.25
2022-11-20T00:58:14.388Z,6.12
2022-11-20T01:01:26.439Z,8.38
2022-11-20T01:04:29.340Z,9.25
2022-11-20T01:07:33.300Z,8.70
2022-11-20T01:10:36.013Z,5.10
2022-11-20T01:13:39.653Z,7.18
2022-11-20T01:16:45.478Z,7.65
2022-11-20T01:19:52.296Z,7.85
2022-11-20T01:22:55.236Z,7.97
2022-11-20T01:26:01.085Z,8.93
2022-11-20T01:48:10.212Z,8.50
2022-11-20T01:51:45.061Z,9.00
2022-11-20T01:55:02.599Z,8.70
2022-11-20T01:58:09.843Z,7.75
2022-11-20T02:01:38.055Z,9.10
2022-11-20T02:05:17.754Z,9.80
2022-11-20T02:08:21.140Z,9.00
2022-11-20T02:11:24.157Z,8.23
2022-11-20T02:14:30.044Z,9.82
2022-11-20T02:17:33.000Z,9.98
2022-11-20T02:20:36.473Z,8.63
2022-11-20T02:23:46.098Z,8.38
2022-11-20T02:27:16.101Z,9.52
2022-11-20T02:30:19.816Z,7.85
2022-11-20T02:33:22.703Z,8.70
2022-11-20T02:36:28.644Z,9.57
2022-11-20T02:39:31.399Z,8.85
2022-11-20T02:42:34.338Z,8.75
2022-11-20T02:45:37.162Z,8.65
2022-11-20T02:48:40.069Z,8.70
2022-11-20T02:51:42.652Z,8.15
2022-11-20T02:54:45.668Z,8.02
2022-11-20T02:57:48.448Z,7.93
2022-11-20T03:01:05.398Z,8.50
2022-11-20T03:04:08.084Z,8.50
2022-11-20T03:07:11.134Z,9.15
2022-11-20T03:10:14.007Z,8.15
2022-11-20T03:13:16.876Z,6.30
2022-11-20T03:16:22.810Z,7.93
2022-11-20T03:19:25.709Z,8.75
2022-11-20T03:22:31.161Z,9.18
2022-11-20T03:25:34.181Z,8.02
2022-11-20T03:28:37.471Z,8.07
2022-11-20T03:31:41.549Z,10.20
2022-11-20T03:34:44.216Z,9.88
2022-11-20T03:37:47.257Z,8.40
2022-11-20T03:40:50.114Z,9.35
2022-11-20T03:43:58.716Z,9.05
2022-11-20T03:47:01.354Z,10.13
2022-11-20T03:50:04.916Z,9.35
2022-11-20T03:53:07.521Z,9.43
2022-11-20T03:56:12.710Z,9.63
2022-11-20T03:59:15.436Z,10.07
2022-11-20T04:02:18.352Z,11.80
2022-11-20T04:05:21.417Z,9.45
2022-11-20T04:08:24.023Z,9.50
2022-11-20T04:11:30.668Z,10.02
2022-11-20T04:14:33.405Z,9.38
2022-11-20T04:17:36.490Z,9.43
2022-11-20T04:20:40.294Z,8.18
2022-11-20T04:23:43.801Z,8.32
2022-11-20T04:27:06.407Z,8.43
2022-11-20T04:30:25.725Z,8.25
2022-11-20T04:33:35.883Z,9.50
2022-11-20T04:37:10.642Z,9.65
2022-11-20T04:40:13.693Z,12.57
2022-11-20T04:43:17.025Z,8.90
2022-11-20T04:46:21.617Z,9.90
2022-11-20T04:49:24.919Z,9.48
2022-11-20T04:52:27.977Z,10.75
2022-11-20T04:55:30.845Z,9.55
2022-11-20T04:58:34.726Z,10.52
2022-11-20T05:01:37.775Z,11.73
2022-11-20T05:04:40.396Z,9.60
2022-11-20T05:07:43.611Z,9.95
2022-11-20T05:10:46.271Z,9.80
2022-11-20T05:13:52.098Z,8.65
2022-11-20T05:16:54.846Z,11.07
2022-11-20T05:19:58.445Z,9.68
2022-11-20T05:23:08.677Z,8.88
2022-11-20T05:26:17.745Z,9.85
2022-11-20T05:29:20.902Z,10.63
2022-11-20T05:32:37.421Z,12.13
2022-11-20T05:35:40.088Z,10.70
2022-11-20T05:38:43.814Z,11.48
2022-11-20T05:41:46.439Z,12.10
2022-11-20T05:44:49.414Z,14.38
2022-11-20T05:47:51.990Z,12.43
2022-11-20T05:50:54.959Z,10.50
2022-11-20T05:53:59.044Z,11.73
2022-11-20T05:57:02.046Z,9.65
2022-11-20T06:00:05.503Z,10.43
2022-11-20T06:03:08.411Z,9.85
2022-11-20T06:06:11.082Z,9.13
2022-11-20T06:09:14.120Z,8.88
2022-11-20T06:12:17.303Z,10.32
2022-11-20T06:15:20.412Z,9.27
2022-11-20T06:18:23.304Z,9.45
2022-11-20T06:21:27.621Z,8.30
2022-11-20T06:24:30.389Z,8.10
2022-11-20T06:27:33.461Z,9.85
2022-11-20T06:30:37.046Z,9.10
2022-11-20T06:33:40.547Z,9.77
2022-11-20T06:36:43.350Z,9.60
2022-11-20T06:39:46.461Z,9.38
2022-11-20T06:42:49.267Z,8.90
2022-11-20T06:46:00.107Z,9.80
2022-11-20T06:49:02.945Z,9.98
2022-11-20T06:52:06.216Z,10.05
2022-11-20T06:55:09.132Z,10.25
2022-11-20T06:58:33.681Z,9.65
2022-11-20T07:01:36.641Z,9.93
2022-11-20T07:04:40.453Z,12.18
2022-11-20T07:07:43.361Z,9.75
2022-11-20T07:10:47.850Z,9.00
2022-11-20T07:13:51.314Z,9.40
2022-11-20T07:16:54.180Z,11.85
2022-11-20T07:19:57.078Z,9.68
2022-11-20T07:23:00.484Z,10.90
2022-11-20T07:26:07.985Z,9.07
2022-11-20T07:29:10.943Z,8.88
2022-11-20T07:32:16.711Z,9.02
2022-11-20T07:35:20.613Z,10.98
2022-11-20T07:38:23.264Z,10.30
2022-11-20T07:41:26.275Z,9.70
2022-11-20T07:44:29.075Z,9.55
2022-11-20T07:47:38.517Z,9.65
2022-11-20T07:50:41.197Z,12.13
2022-11-20T07:53:44.137Z,11.65
2022-11-20T07:56:47.563Z,11.12
2022-11-20T07:59:51.266Z,10.57
2022-11-20T08:02:54.480Z,10.60
2022-11-20T08:06:01.696Z,11.63
2022-11-20T08:09:04.667Z,11.18
2022-11-20T08:12:26.495Z,10.55
2022-11-20T08:15:29.300Z,9.38
2022-11-20T08:18:32.961Z,11.15
2022-11-20T08:21:38.422Z,10.45
2022-11-20T08:24:41.761Z,10.93
2022-11-20T08:27:44.528Z,12.55
2022-11-20T08:30:47.742Z,12.70
2022-11-20T08:33:51.119Z,12.35
2022-11-20T08:36:54.417Z,11.63
2022-11-20T08:39:58.108Z,12.00
2022-11-20T08:43:01.843Z,10.05
2022-11-20T08:46:04.545Z,12.07
2022-11-20T08:49:11.009Z,12.27
2022-11-20T08:52:13.770Z,10.27
2022-11-20T08:55:16.998Z,12.55
2022-11-20T08:58:19.773Z,12.10
2022-11-20T09:01:24.418Z,12.65
2022-11-20T09:04:27.270Z,11.50
2022-11-20T09:07:31.431Z,11.35
2022-11-20T09:10:34.217Z,11.52
2022-11-20T09:13:37.909Z,9.80
2022-11-20T09:16:40.569Z,10.70
2022-11-20T09:19:44.653Z,11.12
2022-11-20T09:22:48.098Z,10.73
2022-11-20T09:25:51.217Z,10.80
2022-11-20T09:28:58.064Z,10.80
2022-11-20T09:32:01.161Z,13.55
2022-11-20T09:35:04.164Z,12.98
2022-11-20T09:38:07.959Z,11.48
2022-11-20T09:41:28.010Z,12.15
2022-11-20T09:47:55.900Z,11.82
2022-11-20T09:51:34.148Z,9.98
2022-11-20T09:54:40.394Z,12.68
2022-11-20T09:57:47.481Z,11.85
2022-11-20T10:00:52.273Z,11.35
2022-11-20T10:04:10.912Z,10.88
2022-11-20T10:07:32.560Z,11.02
2022-11-20T10:10:43.736Z,10.50
2022-11-20T10:13:49.519Z,11.12
2022-11-20T10:17:15.583Z,10.40
2022-11-20T10:20:30.672Z,11.95
2022-11-20T10:23:47.596Z,12.75
2022-11-20T10:26:50.246Z,12.85
2022-11-20T10:30:17.804Z,12.20
2022-11-20T10:33:23.656Z,12.15
2022-11-20T10:36:42.136Z,12.15
2022-11-20T10:40:00.772Z,13.02
2022-11-20T10:43:13.432Z,11.52
2022-11-20T10:46:21.144Z,12.23
2022-11-20T10:49:51.561Z,12.57
2022-11-20T10:53:09.928Z,11.88
2022-11-20T10:56:26.271Z,14.27
2022-11-20T10:59:53.684Z,13.25
2022-11-20T11:03:03.292Z,13.90
2022-11-20T11:06:18.756Z,14.30
2022-11-20T11:09:31.167Z,13.27
2022-11-20T11:12:34.268Z,20.90
2022-11-20T11:15:42.384Z,21.45
2022-11-20T11:18:45.257Z,16.83
2022-11-20T11:21:55.158Z,17.67
2022-11-20T11:24:58.288Z,19.87
2022-11-20T11:28:22.712Z,14.80
2022-11-20T11:31:31.317Z,12.18
2022-11-20T11:34:34.913Z,12.00
2022-11-20T11:37:39.966Z,12.07
2022-11-20T11:40:43.180Z,11.05
2022-11-20T11:44:16.256Z,11.75
2022-11-20T11:47:26.649Z,10.80
2022-11-20T11:50:32.106Z,12.15
2022-11-20T11:53:42.667Z,12.30
2022-11-20T11:56:46.113Z,12.40
2022-11-20T11:59:58.038Z,12.23
2022-11-20T12:03:32.867Z,11.98
2022-11-20T12:07:24.333Z,10.10
2022-11-20T12:10:39.039Z,10.18
2022-11-20T12:13:54.392Z,10.45
2022-11-20T12:16:58.662Z,10.10
2022-11-20T12:20:01.821Z,11.10
2022-11-20T12:23:26.772Z,11.85
2022-11-20T12:26:32.867Z,11.12
2022-11-20T12:30:12.603Z,12.02
2022-11-20T12:33:27.829Z,10.40
2022-11-20T12:36:49.041Z,10.25
2022-11-20T12:39:59.742Z,11.50
2022-11-20T12:46:44.123Z,12.25
2022-11-20T12:49:46.623Z,10.02
2022-11-20T12:53:35.532Z,10.38
2022-11-20T12:57:15.583Z,9.27
2022-11-20T13:03:51.295Z,10.18
2022-11-20T13:06:55.195Z,9.75
2022-11-20T13:10:01.092Z,9.95
2022-11-20T13:13:24.594Z,9.82
2022-11-20T13:16:39.349Z,10.93
2022-11-20T13:19:42.575Z,9.80
2022-11-20T13:22:49.404Z,10.63
2022-11-20T13:25:53.784Z,9.43
2022-11-20T13:29:22.826Z,10.35
2022-11-20T13:32:25.881Z,10.02
2022-11-20T13:35:34.615Z,10.45
2022-11-20T13:38:54.892Z,10.32
2022-11-20T13:42:03.271Z,10.60
2022-11-20T13:45:12.903Z,11.10
2022-11-20T13:48:24.404Z,10.40
2022-11-20T13:51:42.053Z,10.90
2022-11-20T13:55:02.808Z,11.40
2022-11-20T13:58:12.023Z,11.00
2022-11-20T14:01:21.167Z,11.20
2022-11-20T14:04:33.941Z,11.52
2022-11-20T14:07:41.959Z,11.00
2022-11-20T14:10:45.106Z,11.88
2022-11-20T14:13:59.828Z,11.30
2022-11-20T14:17:23.533Z,11.30
2022-11-20T14:20:32.404Z,9.88
2022-11-20T14:23:35.263Z,10.57
2022-11-20T14:26:48.523Z,10.30
2022-11-20T14:29:51.763Z,10.52
2022-11-20T14:32:58.093Z,10.52
2022-11-20T15:31:24.891Z,14.15
2022-11-20T15:34:28.693Z,18.20
2022-11-20T15:37:31.285Z,21.15
2022-11-20T15:40:34.266Z,26.67
2022-11-20T15:43:37.136Z,29.83
2022-11-20T15:46:44.057Z,31.50
2022-11-20T15:49:47.411Z,25.48
2022-11-20T15:52:50.350Z,23.95
2022-11-20T15:55:52.982Z,22.42
2022-11-20T15:58:55.902Z,17.83
2022-11-20T16:01:58.505Z,16.10
2022-11-20T16:05:01.444Z,15.15
2022-11-20T16:08:09.962Z,15.02
2022-11-20T16:11:16.831Z,13.15
2022-11-20T16:14:38.089Z,17.83
2022-11-20T16:17:43.765Z,27.45
2022-11-20T16:20:48.496Z,20.62
2022-11-20T16:23:51.394Z,23.45
2022-11-20T16:26:55.009Z,18.17
2022-11-20T16:29:57.934Z,21.50
2022-11-20T16:33:01.644Z,22.17
2022-11-20T16:36:11.952Z,22.00
2022-11-20T16:39:20.384Z,26.40
2022-11-20T16:42:26.193Z,26.90
2022-11-20T16:45:33.767Z,26.25
2022-11-20T16:48:37.290Z,26.40
2022-11-20T16:51:40.179Z,27.20
2022-11-20T16:54:43.034Z,24.63
2022-11-20T16:57:45.627Z,20.73
2022-11-20T17:00:51.616Z,20.58
2022-11-20T17:04:06.335Z,20.52
2022-11-20T17:07:09.282Z,21.67
2022-11-20T17:10:12.289Z,22.70
2022-11-20T17:13:15.184Z,22.02
2022-11-20T17:16:20.355Z,23.87
2022-11-20T17:19:23.382Z,20.55
2022-11-20T17:22:25.992Z,22.33
2022-11-20T17:25:28.891Z,20.65
2022-11-20T17:28:32.126Z,21.30
2022-11-20T19:26:18.303Z,15.82
2022-11-20T19:29:22.401Z,19.87
2022-11-20T19:32:25.425Z,15.73
2022-11-20T19:35:28.706Z,17.10
2022-11-20T19:38:31.715Z,18.00
2022-11-20T19:41:36.545Z,19.42
2022-11-20T19:44:39.511Z,20.75
2022-11-20T19:48:22.890Z,20.98
2022-11-20T19:51:49.204Z,22.85
2022-11-20T19:54:55.319Z,24.52
2022-11-20T19:57:58.277Z,22.20
2022-11-20T20:01:19.060Z,18.80
2022-11-20T20:04:47.265Z,17.55
2022-11-20T20:07:50.218Z,21.08
2022-11-20T20:11:12.541Z,20.77
2022-11-20T20:14:16.366Z,19.70
2022-11-20T20:17:19.521Z,19.02
2022-11-20T20:20:23.264Z,19.52
2022-11-20T20:23:26.362Z,19.70
2022-11-20T20:26:38.425Z,24.25
2022-11-20T20:29:45.739Z,42.10
2022-11-20T20:32:53.355Z,38.30
2022-11-20T20:35:59.466Z,31.37
2022-11-20T20:39:04.488Z,30.30
2022-11-20T20:42:13.481Z,29.00
2022-11-20T20:45:16.484Z,32.00
2022-11-20T20:48:22.253Z,25.40
2022-11-20T20:51:25.238Z,24.50
2022-11-20T20:54:31.609Z,23.58
2022-11-20T20:57:37.304Z,20.40
2022-11-20T21:00:41.363Z,18.73
2022-11-20T21:03:44.235Z,17.42
2022-11-20T21:06:47.964Z,17.62
2022-11-20T21:09:53.290Z,18.27
2022-11-20T21:12:56.372Z,17.60
2022-11-20T21:15:59.533Z,18.95
2022-11-20T21:19:02.717Z,16.35
2022-11-20T21:22:07.427Z,19.05
2022-11-20T21:25:10.796Z,20.27
2022-11-20T21:28:26.614Z,18.50
2022-11-20T21:31:50.391Z,15.95
2022-11-20T21:34:53.097Z,16.52
2022-11-20T21:37:56.246Z,14.95
2022-11-20T21:40:59.547Z,15.38
2022-11-20T21:47:30.744Z,15.30
2022-11-20T21:50:37.964Z,15.38
2022-11-20T21:53:41.751Z,17.62
2022-11-20T21:56:49.717Z,19.27
2022-11-20T21:59:52.492Z,16.12
2022-11-20T22:02:55.590Z,14.57
2022-11-20T22:06:00.948Z,14.45
2022-11-20T22:09:23.789Z,15.07
2022-11-20T22:12:27.232Z,15.27
2022-11-20T22:15:59.255Z,13.62
2022-11-20T22:19:10.455Z,14.23
2022-11-20T22:22:13.329Z,16.33
2022-11-20T22:25:16.510Z,14.48
2022-11-20T22:28:19.433Z,14.48
2022-11-20T22:31:25.090Z,15.77
2022-11-20T22:34:27.885Z,15.52
2022-11-20T22:37:31.087Z,15.98
2022-11-20T22:40:53.822Z,17.55
2022-11-20T22:44:06.883Z,17.23
2022-11-20T22:47:11.481Z,17.10
2022-11-20T22:50:17.276Z,15.38
2022-11-20T22:53:22.917Z,16.00
2022-11-20T22:56:26.174Z,14.27
2022-11-20T22:59:45.226Z,14.57
2022-11-20T23:02:48.259Z,16.00
2022-11-20T23:05:51.098Z,16.55
2022-11-20T23:08:55.384Z,14.95
2022-11-20T23:12:02.316Z,15.02
2022-11-20T23:15:10.427Z,15.13
2022-11-20T23:18:16.689Z,16.27
2022-11-20T23:21:20.752Z,13.15
2022-11-20T23:24:28.045Z,14.35
2022-11-20T23:27:31.409Z,14.25
2022-11-20T23:30:34.205Z,15.05
2022-11-20T23:33:39.628Z,12.80
2022-11-20T23:37:02.224Z,13.30
2022-11-20T23:40:17.274Z,14.32
2022-11-20T23:43:21.795Z,13.65
2022-11-20T23:46:24.892Z,15.95
2022-11-20T23:49:27.607Z,16.62
2022-11-20T23:52:30.653Z,15.02
2022-11-20T23:55:33.783Z,14.38
2022-11-20T23:58:38.380Z,15.40
